createdAt,value
2018-08-23T00:01:04.270Z,11.47
2018-08-23T00:03:32.008Z,10.83
2018-08-23T00:06:00.122Z,8.63
2018-08-23T00:08:27.822Z,9.83
2018-08-23T00:10:55.490Z,12.53
2018-08-23T00:13:23.377Z,9.97
2018-08-23T00:15:51.157Z,10.37
2018-08-23T00:18:18.841Z,9.13
2018-08-23T00:20:46.513Z,7.97
2018-08-23T00:23:14.193Z,8.77
2018-08-23T00:25:41.875Z,7.90
2018-08-23T00:28:10.490Z,11.00
2018-08-23T00:30:38.181Z,7.03
2018-08-23T00:33:06.334Z,11.30
2018-08-23T00:35:35.818Z,7.53
2018-08-23T00:38:04.330Z,10.00
2018-08-23T00:40:39.433Z,11.33
2018-08-23T00:43:08.119Z,7.80
2018-08-23T00:45:35.846Z,7.03
2018-08-23T00:48:03.569Z,10.83
2018-08-23T00:51:04.438Z,13.27
2018-08-23T00:53:36.345Z,10.03
2018-08-23T00:56:14.070Z,10.87
2018-08-23T00:58:45.594Z,11.13
2018-08-23T01:01:13.863Z,15.43
2018-08-23T01:03:41.848Z,13.40
2018-08-23T01:06:09.530Z,13.83
2018-08-23T01:08:37.237Z,15.97
2018-08-23T01:11:06.145Z,17.03
2018-08-23T01:13:34.053Z,15.93
2018-08-23T01:16:01.741Z,16.03
2018-08-23T01:18:29.434Z,17.00
2018-08-23T01:20:57.113Z,14.57
2018-08-23T01:23:24.814Z,13.40
2018-08-23T01:25:52.783Z,14.67
2018-08-23T01:28:20.526Z,11.63
2018-08-23T01:30:48.781Z,14.57
2018-08-23T01:33:20.535Z,10.03
2018-08-23T01:35:49.425Z,10.20
2018-08-23T01:38:17.501Z,11.53
2018-08-23T01:40:45.382Z,10.17
2018-08-23T01:43:13.161Z,14.30
2018-08-23T01:45:40.848Z,12.40
2018-08-23T01:48:09.569Z,10.77
2018-08-23T01:50:37.265Z,9.50
2018-08-23T01:53:05.054Z,12.17
2018-08-23T01:55:32.743Z,11.63
2018-08-23T01:58:00.486Z,11.30
2018-08-23T02:00:30.246Z,14.03
2018-08-23T02:02:59.546Z,10.53
2018-08-23T02:05:27.270Z,13.53
2018-08-23T02:07:54.966Z,14.23
2018-08-23T02:10:22.649Z,11.47
2018-08-23T02:12:51.741Z,13.17
2018-08-23T02:15:19.696Z,11.27
2018-08-23T02:17:52.873Z,10.97
2018-08-23T02:20:21.362Z,8.97
2018-08-23T02:22:49.065Z,10.57
2018-08-23T02:25:16.739Z,11.57
2018-08-23T02:28:06.645Z,9.63
2018-08-23T02:31:00.896Z,10.73
2018-08-23T02:33:28.562Z,9.17
2018-08-23T02:36:18.780Z,10.60
2018-08-23T02:38:50.132Z,12.57
2018-08-23T02:41:17.893Z,12.50
2018-08-23T02:43:46.166Z,11.33
2018-08-23T02:46:13.881Z,10.70
2018-08-23T02:48:41.561Z,13.97
2018-08-23T02:51:09.316Z,10.93
2018-08-23T02:53:43.899Z,9.30
2018-08-23T02:56:17.800Z,13.93
2018-08-23T02:58:51.822Z,9.60
2018-08-23T03:01:19.484Z,9.07
2018-08-23T03:03:59.757Z,13.20
2018-08-23T03:06:32.033Z,12.57
2018-08-23T03:08:59.705Z,9.97
2018-08-23T03:11:27.366Z,9.77
2018-08-23T03:13:55.098Z,13.80
2018-08-23T03:16:22.757Z,13.90
2018-08-23T03:18:50.451Z,15.93
2018-08-23T03:21:18.528Z,16.77
2018-08-23T03:23:46.214Z,22.70
2018-08-23T03:26:13.893Z,30.07
2018-08-23T03:28:41.602Z,29.87
2018-08-23T03:31:09.331Z,23.87
2018-08-23T03:33:36.983Z,14.40
2018-08-23T03:36:04.649Z,15.10
2018-08-23T03:38:32.311Z,11.57
2018-08-23T03:40:59.969Z,11.47
2018-08-23T03:43:27.653Z,11.93
2018-08-23T03:45:58.096Z,14.10
2018-08-23T03:48:25.768Z,16.10
2018-08-23T03:50:53.795Z,13.30
2018-08-23T03:53:22.070Z,10.77
2018-08-23T03:56:03.367Z,9.80
2018-08-23T03:58:31.033Z,15.17
2018-08-23T04:01:01.035Z,13.57
2018-08-23T04:03:28.725Z,12.60
2018-08-23T04:06:06.985Z,11.03
2018-08-23T04:08:34.633Z,13.23
2018-08-23T04:11:02.476Z,12.17
2018-08-23T04:13:30.125Z,14.90
2018-08-23T04:15:57.811Z,11.67
2018-08-23T04:18:25.495Z,11.40
2018-08-23T04:20:54.645Z,13.20
2018-08-23T04:23:22.362Z,11.53
2018-08-23T04:25:50.039Z,12.23
2018-08-23T04:28:17.721Z,12.80
2018-08-23T04:30:45.433Z,16.13
2018-08-23T04:33:13.080Z,10.57
2018-08-23T04:35:40.752Z,13.73
2018-08-23T04:38:08.412Z,12.37
2018-08-23T04:40:36.094Z,15.27
2018-08-23T04:43:03.819Z,9.80
2018-08-23T04:45:32.893Z,13.10
2018-08-23T04:48:04.213Z,12.40
2018-08-23T04:50:31.928Z,13.73
2018-08-23T04:52:59.653Z,9.53
2018-08-23T04:55:27.603Z,15.50
2018-08-23T04:57:56.149Z,10.70
2018-08-23T05:00:23.828Z,15.87
2018-08-23T05:02:51.502Z,14.27
2018-08-23T05:05:19.244Z,15.27
2018-08-23T05:07:46.955Z,16.10
2018-08-23T05:10:14.809Z,15.30
2018-08-23T05:12:42.549Z,14.23
2018-08-23T05:15:10.235Z,16.10
2018-08-23T05:17:37.919Z,16.07
2018-08-23T05:20:05.757Z,17.50
2018-08-23T05:22:33.468Z,22.63
2018-08-23T05:25:06.665Z,16.10
2018-08-23T05:27:44.557Z,16.33
2018-08-23T05:30:12.236Z,18.90
2018-08-23T05:32:39.908Z,22.17
2018-08-23T05:35:07.716Z,15.23
2018-08-23T05:37:35.950Z,23.73
2018-08-23T05:40:03.654Z,18.00
2018-08-23T05:42:46.841Z,19.63
2018-08-23T05:45:14.502Z,14.90
2018-08-23T05:47:42.215Z,20.80
2018-08-23T05:50:09.846Z,19.10
2018-08-23T05:52:37.490Z,21.60
2018-08-23T05:55:05.169Z,19.63
2018-08-23T05:57:32.838Z,17.30
2018-08-23T06:00:00.529Z,17.70
2018-08-23T06:02:28.170Z,22.93
2018-08-23T06:04:55.809Z,21.83
2018-08-23T06:07:23.545Z,23.87
2018-08-23T06:09:51.233Z,14.53
2018-08-23T06:12:18.894Z,19.50
2018-08-23T06:14:46.542Z,19.27
2018-08-23T06:17:14.197Z,17.00
2018-08-23T06:19:41.841Z,18.70
2018-08-23T06:22:09.483Z,14.90
2018-08-23T06:24:37.121Z,11.13
2018-08-23T06:27:04.788Z,14.40
2018-08-23T06:29:34.277Z,9.83
2018-08-23T06:32:08.730Z,11.93
2018-08-23T06:34:39.751Z,9.20
2018-08-23T06:37:07.396Z,13.87
2018-08-23T06:39:35.066Z,13.13
2018-08-23T06:42:03.429Z,9.43
2018-08-23T06:44:41.403Z,12.90
2018-08-23T06:47:10.529Z,13.87
2018-08-23T06:49:38.198Z,10.73
2018-08-23T06:52:11.694Z,12.07
2018-08-23T06:54:39.867Z,11.63
2018-08-23T06:57:07.610Z,12.37
2018-08-23T06:59:35.598Z,9.47
2018-08-23T07:02:03.346Z,12.33
2018-08-23T07:04:31.122Z,11.90
2018-08-23T07:06:58.806Z,11.37
2018-08-23T07:09:26.458Z,8.43
2018-08-23T07:12:29.480Z,10.57
2018-08-23T07:14:57.146Z,10.60
2018-08-23T07:17:25.742Z,10.20
2018-08-23T07:19:53.374Z,11.33
2018-08-23T07:22:23.166Z,9.90
2018-08-23T07:24:52.043Z,13.00
2018-08-23T07:27:20.710Z,11.43
2018-08-23T07:29:49.770Z,11.87
2018-08-23T07:32:19.753Z,10.83
2018-08-23T07:35:14.457Z,11.37
2018-08-23T07:37:43.535Z,12.33
2018-08-23T07:40:13.327Z,10.80
2018-08-23T07:42:42.132Z,12.57
2018-08-23T07:45:10.318Z,11.10
2018-08-23T07:47:54.853Z,10.00
2018-08-23T07:50:22.574Z,9.57
2018-08-23T07:52:51.621Z,16.60
2018-08-23T07:55:19.286Z,7.93
2018-08-23T07:57:47.074Z,9.83
2018-08-23T08:00:25.482Z,10.13
2018-08-23T08:02:53.261Z,7.23
2018-08-23T08:05:21.589Z,12.20
2018-08-23T08:07:49.271Z,10.37
2018-08-23T08:10:18.709Z,9.63
2018-08-23T08:12:50.443Z,9.10
2018-08-23T08:15:18.539Z,7.90
2018-08-23T08:17:46.081Z,10.40
2018-08-23T08:20:13.729Z,9.87
2018-08-23T08:22:41.386Z,8.50
2018-08-23T08:25:17.730Z,7.43
2018-08-23T08:27:45.816Z,8.80
2018-08-23T08:30:15.666Z,8.77
2018-08-23T08:32:43.806Z,11.27
2018-08-23T08:35:17.872Z,15.07
2018-08-23T08:37:46.928Z,12.83
2018-08-23T08:40:19.148Z,8.47
2018-08-23T08:42:46.849Z,8.27
2018-08-23T08:45:14.534Z,8.80
2018-08-23T08:47:44.256Z,6.43
2018-08-23T08:50:12.090Z,6.93
2018-08-23T08:52:39.770Z,12.13
2018-08-23T08:55:10.261Z,7.07
2018-08-23T08:57:40.720Z,8.60
2018-08-23T09:00:09.001Z,8.63
2018-08-23T09:02:36.772Z,8.07
2018-08-23T09:05:04.646Z,6.33
2018-08-23T09:07:33.393Z,7.00
2018-08-23T09:10:01.163Z,5.50
2018-08-23T09:12:30.178Z,5.07
2018-08-23T09:14:58.006Z,9.00
2018-08-23T09:17:44.219Z,7.60
2018-08-23T09:20:16.090Z,6.40
2018-08-23T09:22:50.417Z,6.10
2018-08-23T09:25:23.738Z,5.83
2018-08-23T09:27:51.647Z,6.80
2018-08-23T09:30:27.227Z,8.63
2018-08-23T09:32:55.271Z,6.00
2018-08-23T09:35:28.538Z,7.73
2018-08-23T09:37:57.573Z,6.60
2018-08-23T09:40:25.618Z,6.83
2018-08-23T09:42:53.373Z,8.30
2018-08-23T09:45:21.021Z,9.13
2018-08-23T09:47:48.718Z,5.03
2018-08-23T09:50:17.159Z,7.07
2018-08-23T09:52:46.817Z,6.57
2018-08-23T09:55:15.585Z,6.57
2018-08-23T09:57:43.758Z,6.37
2018-08-23T10:00:13.253Z,5.47
2018-08-23T10:02:46.823Z,9.27
2018-08-23T10:05:20.156Z,5.40
2018-08-23T10:07:53.265Z,8.33
2018-08-23T10:10:26.433Z,6.30
2018-08-23T10:12:59.574Z,5.53
2018-08-23T10:15:32.713Z,10.60
2018-08-23T10:18:05.881Z,5.67
2018-08-23T10:20:46.158Z,5.97
2018-08-23T10:23:19.333Z,5.07
2018-08-23T10:25:48.369Z,8.40
2018-08-23T10:28:17.283Z,6.33
2018-08-23T10:30:45.303Z,6.53
2018-08-23T10:33:13.040Z,7.80
2018-08-23T10:35:46.299Z,8.37
2018-08-23T10:38:15.481Z,6.80
2018-08-23T10:40:44.241Z,8.03
2018-08-23T10:43:12.097Z,7.07
2018-08-23T10:45:40.199Z,5.70
2018-08-23T10:48:13.497Z,9.67
2018-08-23T10:50:41.283Z,5.93
2018-08-23T10:53:09.134Z,8.27
2018-08-23T10:55:36.825Z,7.53
2018-08-23T10:58:05.492Z,10.17
2018-08-23T11:00:33.393Z,5.73
2018-08-23T11:03:04.047Z,5.50
2018-08-23T11:05:31.923Z,5.37
2018-08-23T11:08:05.200Z,6.60
2018-08-23T11:10:38.389Z,6.43
2018-08-23T11:13:11.986Z,5.30
2018-08-23T11:15:39.889Z,7.50
2018-08-23T11:18:12.884Z,5.30
2018-08-23T11:20:46.890Z,5.37
2018-08-23T11:23:17.967Z,6.77
2018-08-23T11:25:45.870Z,5.90
2018-08-23T11:28:19.332Z,6.73
2018-08-23T11:30:47.157Z,6.13
2018-08-23T11:33:15.035Z,4.80
2018-08-23T11:35:42.800Z,10.37
2018-08-23T11:38:10.699Z,8.33
2018-08-23T11:40:38.551Z,5.67
2018-08-23T11:43:06.350Z,5.23
2018-08-23T11:45:35.074Z,6.40
2018-08-23T11:48:02.846Z,6.23
2018-08-23T11:50:30.650Z,7.50
2018-08-23T11:52:58.540Z,5.17
2018-08-23T11:55:26.517Z,5.60
2018-08-23T11:57:54.437Z,6.20
2018-08-23T12:00:22.297Z,5.77
2018-08-23T12:02:50.053Z,7.00
2018-08-23T12:05:18.777Z,5.37
2018-08-23T12:07:48.080Z,9.87
2018-08-23T12:10:18.084Z,6.17
2018-08-23T12:12:46.549Z,7.40
2018-08-23T12:15:16.565Z,8.23
2018-08-23T12:17:44.444Z,5.80
2018-08-23T12:20:12.251Z,5.70
2018-08-23T12:22:41.521Z,5.47
2018-08-23T12:25:10.641Z,5.57
2018-08-23T12:27:39.191Z,7.50
2018-08-23T12:30:07.401Z,5.73
2018-08-23T12:32:35.252Z,5.57
2018-08-23T12:35:03.368Z,5.83
2018-08-23T12:37:36.473Z,8.07
2018-08-23T12:40:09.975Z,7.67
2018-08-23T12:42:45.392Z,8.60
2018-08-23T12:45:13.866Z,5.40
2018-08-23T12:47:41.938Z,5.37
2018-08-23T12:50:09.839Z,8.00
2018-08-23T12:52:37.628Z,8.33
2018-08-23T12:55:05.546Z,7.20
2018-08-23T12:57:33.377Z,7.93
2018-08-23T13:00:01.173Z,6.20
2018-08-23T13:02:29.028Z,5.80
2018-08-23T13:04:56.838Z,9.37
2018-08-23T13:07:24.735Z,7.23
2018-08-23T13:09:52.674Z,7.17
2018-08-23T13:12:20.531Z,7.27
2018-08-23T13:14:48.914Z,5.80
2018-08-23T13:17:16.761Z,6.50
2018-08-23T13:19:44.534Z,9.03
2018-08-23T13:22:12.339Z,7.50
2018-08-23T13:24:45.636Z,7.60
2018-08-23T13:27:13.461Z,6.03
2018-08-23T13:29:41.360Z,7.43
2018-08-23T13:32:09.138Z,6.13
2018-08-23T13:34:36.986Z,6.93
2018-08-23T13:37:04.779Z,12.00
2018-08-23T13:39:32.628Z,7.00
2018-08-23T13:42:00.620Z,9.80
2018-08-23T13:44:28.215Z,7.07
2018-08-23T13:46:55.920Z,8.57
2018-08-23T13:49:23.682Z,7.73
2018-08-23T13:51:51.574Z,6.87
2018-08-23T13:54:19.458Z,8.73
2018-08-23T13:56:47.348Z,7.33
2018-08-23T13:59:15.249Z,6.20
2018-08-23T14:01:43.057Z,6.93
2018-08-23T14:04:10.869Z,6.33
2018-08-23T14:06:38.634Z,8.40
2018-08-23T14:09:06.614Z,9.53
2018-08-23T14:11:34.324Z,9.47
2018-08-23T14:14:02.178Z,7.73
2018-08-23T14:16:29.943Z,8.20
2018-08-23T14:18:57.822Z,9.13
2018-08-23T14:21:25.693Z,6.93
2018-08-23T14:23:53.446Z,6.63
2018-08-23T14:26:21.289Z,6.70
2018-08-23T14:28:49.085Z,6.80
2018-08-23T14:31:16.908Z,7.60
2018-08-23T14:33:44.744Z,9.10
2018-08-23T14:36:12.583Z,7.40
2018-08-23T14:38:40.432Z,10.60
2018-08-23T14:41:08.273Z,7.03
2018-08-23T14:43:36.057Z,6.93
2018-08-23T14:46:09.384Z,8.23
2018-08-23T14:48:38.995Z,9.33
2018-08-23T14:51:06.787Z,7.97
2018-08-23T14:53:34.693Z,9.43
2018-08-23T14:56:07.863Z,10.57
2018-08-23T14:58:35.675Z,7.00
2018-08-23T15:01:03.460Z,9.30
2018-08-23T15:03:31.277Z,8.23
2018-08-23T15:05:59.094Z,11.23
2018-08-23T15:08:26.914Z,8.37
2018-08-23T15:10:54.782Z,6.90
2018-08-23T15:13:22.610Z,8.77
2018-08-23T15:15:51.495Z,8.47
2018-08-23T15:18:21.357Z,10.03
2018-08-23T15:20:49.757Z,9.60
2018-08-23T15:23:17.580Z,10.47
2018-08-23T15:25:45.273Z,7.17
2018-08-23T15:28:13.005Z,10.87
2018-08-23T15:30:40.710Z,10.07
2018-08-23T15:33:08.498Z,6.93
2018-08-23T15:35:36.122Z,7.93
2018-08-23T15:38:03.846Z,7.57
2018-08-23T15:40:31.595Z,12.13
2018-08-23T15:42:59.286Z,7.43
2018-08-23T15:45:26.980Z,7.07
2018-08-23T15:47:54.694Z,8.50
2018-08-23T15:50:23.394Z,8.03
2018-08-23T15:52:51.729Z,7.33
2018-08-23T15:55:20.390Z,8.77
2018-08-23T15:57:47.911Z,8.57
2018-08-23T16:00:16.590Z,8.93
2018-08-23T16:02:44.537Z,11.03
2018-08-23T16:05:12.254Z,10.70
2018-08-23T16:07:39.938Z,8.47
2018-08-23T16:10:08.451Z,10.70
2018-08-23T16:12:36.126Z,9.20
2018-08-23T16:15:09.526Z,10.90
2018-08-23T16:17:42.677Z,7.67
2018-08-23T16:20:15.895Z,9.50
2018-08-23T16:22:43.881Z,7.80
2018-08-23T16:25:11.591Z,7.97
2018-08-23T16:27:39.261Z,9.67
2018-08-23T16:30:07.017Z,10.10
2018-08-23T16:32:35.454Z,9.93
2018-08-23T16:35:03.256Z,8.67
2018-08-23T16:37:31.920Z,9.10
2018-08-23T16:39:59.608Z,14.83
2018-08-23T16:42:27.308Z,10.90
2018-08-23T16:44:54.994Z,15.13
2018-08-23T16:47:22.846Z,12.07
2018-08-23T16:49:50.610Z,11.10
2018-08-23T16:52:18.458Z,9.47
2018-08-23T16:54:46.134Z,11.93
2018-08-23T16:57:14.063Z,13.80
2018-08-23T16:59:41.722Z,19.33
2018-08-23T17:02:09.835Z,13.23
2018-08-23T17:04:43.638Z,13.60
2018-08-23T17:07:12.379Z,12.67
2018-08-23T17:09:40.107Z,11.37
2018-08-23T17:12:07.854Z,14.17
2018-08-23T17:14:35.546Z,12.13
2018-08-23T17:17:08.794Z,9.03
2018-08-23T17:19:36.530Z,10.90
2018-08-23T17:22:04.299Z,10.70
2018-08-23T17:24:32.053Z,13.97
2018-08-23T17:26:59.714Z,13.23
2018-08-23T17:29:27.383Z,16.37
2018-08-23T17:31:55.089Z,20.60
2018-08-23T17:34:22.780Z,15.70
2018-08-23T17:36:50.439Z,18.40
2018-08-23T17:39:18.120Z,20.63
2018-08-23T17:41:45.783Z,21.73
2018-08-23T17:44:13.486Z,14.00
2018-08-23T17:46:41.218Z,14.23
2018-08-23T17:49:08.934Z,14.27
2018-08-23T17:51:36.606Z,16.33
2018-08-23T17:54:04.381Z,11.90
2018-08-23T17:56:32.145Z,17.90
2018-08-23T17:58:59.837Z,16.50
2018-08-23T18:01:27.580Z,15.40
2018-08-23T18:03:55.274Z,11.97
2018-08-23T18:06:22.980Z,16.77
2018-08-23T18:08:50.667Z,12.60
2018-08-23T18:11:18.366Z,11.20
2018-08-23T18:13:46.050Z,22.97
2018-08-23T18:16:19.346Z,16.80
2018-08-23T18:18:47.310Z,11.53
2018-08-23T18:21:15.013Z,10.87
2018-08-23T18:23:42.701Z,10.33
2018-08-23T18:26:10.647Z,10.00
2018-08-23T18:28:38.389Z,23.13
2018-08-23T18:31:06.428Z,11.13
2018-08-23T18:33:34.165Z,13.50
2018-08-23T18:36:01.869Z,12.13
2018-08-23T18:38:29.542Z,12.30
2018-08-23T18:40:57.274Z,11.30
2018-08-23T18:43:25.029Z,10.83
2018-08-23T18:45:52.804Z,14.37
2018-08-23T18:48:20.552Z,9.27
2018-08-23T18:50:48.262Z,8.90
2018-08-23T18:53:15.993Z,10.63
2018-08-23T18:55:43.714Z,11.63
2018-08-23T18:58:11.433Z,10.13
2018-08-23T19:00:39.182Z,9.57
2018-08-23T19:03:06.906Z,9.07
2018-08-23T19:05:34.715Z,13.53
2018-08-23T19:08:02.422Z,7.90
2018-08-23T19:10:30.121Z,9.63
2018-08-23T19:12:57.820Z,8.00
2018-08-23T19:15:30.998Z,12.33
2018-08-23T19:17:58.681Z,8.00
2018-08-23T19:20:26.409Z,8.43
2018-08-23T19:22:54.197Z,8.50
2018-08-23T19:25:21.858Z,9.00
2018-08-23T19:27:49.561Z,7.00
2018-08-23T19:30:17.250Z,6.03
2018-08-23T19:32:44.991Z,10.23
2018-08-23T19:35:12.722Z,8.53
2018-08-23T19:37:40.424Z,9.47
2018-08-23T19:40:08.192Z,7.90
2018-08-23T19:42:35.977Z,8.17
2018-08-23T19:45:03.706Z,10.23
2018-08-23T19:47:36.880Z,8.73
2018-08-23T19:50:08.651Z,7.77
2018-08-23T19:52:36.466Z,9.60
2018-08-23T19:55:04.281Z,9.47
2018-08-23T19:57:32.060Z,9.57
2018-08-23T19:59:59.761Z,6.00
2018-08-23T20:02:27.455Z,6.43
2018-08-23T20:04:55.149Z,9.87
2018-08-23T20:07:22.835Z,9.10
2018-08-23T20:09:50.601Z,7.40
2018-08-23T20:12:18.367Z,10.00
2018-08-23T20:14:46.109Z,8.67
2018-08-23T20:17:13.861Z,8.07
2018-08-23T20:19:41.537Z,9.30
2018-08-23T20:22:09.250Z,6.60
2018-08-23T20:24:37.059Z,8.57
2018-08-23T20:27:04.883Z,7.67
2018-08-23T20:29:32.977Z,10.97
2018-08-23T20:32:00.753Z,7.87
2018-08-23T20:34:28.470Z,7.73
2018-08-23T20:36:56.172Z,8.00
2018-08-23T20:39:24.025Z,7.37
2018-08-23T20:41:51.633Z,9.33
2018-08-23T20:44:19.313Z,7.63
2018-08-23T20:46:47.044Z,7.90
2018-08-23T20:49:14.690Z,7.63
2018-08-23T20:51:42.381Z,7.93
2018-08-23T20:54:10.102Z,9.77
2018-08-23T20:56:37.826Z,7.63
2018-08-23T20:59:05.873Z,7.27
2018-08-23T21:01:33.564Z,8.53
2018-08-23T21:04:01.346Z,8.87
2018-08-23T21:06:29.098Z,10.80
2018-08-23T21:08:56.874Z,9.63
2018-08-23T21:11:24.574Z,9.80
2018-08-23T21:13:52.285Z,12.17
2018-08-23T21:16:20.161Z,11.07
2018-08-23T21:18:47.920Z,7.47
2018-08-23T21:21:15.609Z,8.87
2018-08-23T21:23:43.296Z,8.40
2018-08-23T21:26:10.988Z,8.03
2018-08-23T21:28:38.737Z,8.70
2018-08-23T21:31:06.471Z,6.63
2018-08-23T21:33:34.140Z,8.33
2018-08-23T21:36:01.798Z,6.23
2018-08-23T21:38:29.510Z,8.40
2018-08-23T21:40:57.220Z,7.17
2018-08-23T21:43:24.910Z,7.83
2018-08-23T21:45:52.613Z,8.80
2018-08-23T21:48:20.336Z,6.37
2018-08-23T21:50:48.066Z,6.60
2018-08-23T21:53:15.804Z,6.93
2018-08-23T21:55:43.510Z,7.47
2018-08-23T21:58:11.528Z,7.80
2018-08-23T22:00:44.916Z,7.17
2018-08-23T22:03:13.375Z,7.20
2018-08-23T22:05:41.699Z,5.93
2018-08-23T22:08:09.628Z,7.60
2018-08-23T22:10:37.331Z,6.83
2018-08-23T22:13:05.202Z,7.57
2018-08-23T22:15:32.983Z,7.87
2018-08-23T22:18:00.755Z,9.33
2018-08-23T22:20:28.445Z,9.63
2018-08-23T22:22:56.104Z,6.73
2018-08-23T22:25:23.883Z,7.93
2018-08-23T22:27:51.552Z,9.33
2018-08-23T22:30:19.297Z,7.43
2018-08-23T22:32:46.961Z,8.43
2018-08-23T22:35:14.621Z,7.63
2018-08-23T22:37:42.289Z,8.67
2018-08-23T22:40:09.989Z,9.33
2018-08-23T22:42:37.670Z,6.63
2018-08-23T22:45:05.467Z,6.33
2018-08-23T22:47:33.323Z,7.03
2018-08-23T22:50:01.044Z,9.37
2018-08-23T22:52:28.680Z,9.33
2018-08-23T22:54:56.333Z,5.90
2018-08-23T22:57:24.029Z,7.20
2018-08-23T22:59:51.685Z,6.33
2018-08-23T23:02:24.759Z,9.20
2018-08-23T23:04:52.430Z,10.10
2018-08-23T23:07:20.088Z,8.10
2018-08-23T23:09:47.745Z,8.63
2018-08-23T23:12:15.414Z,7.67
2018-08-23T23:14:43.062Z,10.87
2018-08-23T23:17:10.972Z,11.70
2018-08-23T23:19:38.732Z,6.53
2018-08-23T23:22:06.750Z,8.43
2018-08-23T23:24:39.881Z,6.33
2018-08-23T23:27:07.664Z,5.67
2018-08-23T23:29:35.409Z,7.27
2018-08-23T23:32:03.082Z,10.90
2018-08-23T23:34:30.721Z,9.27
2018-08-23T23:36:58.395Z,9.80
2018-08-23T23:39:26.049Z,8.03
2018-08-23T23:41:53.766Z,8.70
2018-08-23T23:44:21.432Z,8.57
2018-08-23T23:46:49.160Z,7.20
2018-08-23T23:49:16.826Z,11.50
2018-08-23T23:51:44.501Z,8.97
2018-08-23T23:54:12.218Z,9.00
2018-08-23T23:56:39.869Z,6.97
2018-08-23T23:59:07.525Z,11.83
